createdAt,value
2019-02-27T00:01:49.626Z,0.80
2019-02-27T00:04:21.513Z,0.70
2019-02-27T00:06:52.359Z,0.80
2019-02-27T00:09:23.374Z,0.70
2019-02-27T00:11:53.948Z,0.60
2019-02-27T00:14:28.828Z,0.60
2019-02-27T00:16:58.991Z,0.60
2019-02-27T00:19:31.362Z,0.60
2019-02-27T00:22:06.778Z,0.70
2019-02-27T00:24:37.769Z,0.80
2019-02-27T00:27:08.467Z,0.70
2019-02-27T00:29:41.979Z,0.40
2019-02-27T00:32:12.930Z,0.30
2019-02-27T00:34:46.644Z,0.40
2019-02-27T00:37:18.943Z,0.50
2019-02-27T00:39:49.795Z,0.60
2019-02-27T00:42:22.856Z,0.70
2019-02-27T00:44:52.721Z,0.70
2019-02-27T00:47:23.328Z,0.60
2019-02-27T00:49:58.222Z,0.40
2019-02-27T00:52:30.419Z,0.40
2019-02-27T00:55:04.317Z,0.50
2019-02-27T00:57:36.438Z,0.50
2019-02-27T01:00:13.631Z,0.40
2019-02-27T01:02:44.408Z,0.30
2019-02-27T01:05:16.817Z,0.50
2019-02-27T01:07:47.460Z,0.50
2019-02-27T01:10:18.212Z,0.30
2019-02-27T01:12:48.831Z,0.50
2019-02-27T01:15:19.600Z,0.50
2019-02-27T01:17:50.195Z,0.50
2019-02-27T01:20:21.968Z,0.50
2019-02-27T01:22:56.659Z,0.30
2019-02-27T01:25:27.298Z,0.30
2019-02-27T01:27:58.081Z,0.40
2019-02-27T01:30:28.681Z,0.40
2019-02-27T01:33:03.965Z,0.30
2019-02-27T01:35:32.281Z,0.40
2019-02-27T01:38:05.258Z,0.40
2019-02-27T01:40:35.354Z,0.40
2019-02-27T01:43:06.506Z,0.40
2019-02-27T01:45:37.269Z,0.10
2019-02-27T01:48:09.905Z,0.00
2019-02-27T01:50:41.895Z,0.10
2019-02-27T01:53:12.545Z,0.10
2019-02-27T01:55:46.601Z,0.30
2019-02-27T01:58:17.317Z,0.40
2019-02-27T02:00:47.942Z,0.40
2019-02-27T02:03:18.777Z,0.40
2019-02-27T02:05:49.811Z,0.30
2019-02-27T02:08:20.982Z,0.20
2019-02-27T02:10:54.040Z,0.30
2019-02-27T02:13:32.506Z,0.40
2019-02-27T02:17:01.332Z,0.50
2019-02-27T02:20:19.573Z,0.50
2019-02-27T02:23:22.587Z,0.20
2019-02-27T02:26:13.332Z,0.20
2019-02-27T02:29:30.457Z,0.30
2019-02-27T02:32:37.230Z,0.40
2019-02-27T02:35:21.879Z,0.30
2019-02-27T02:38:31.396Z,0.30
2019-02-27T02:41:38.045Z,0.20
2019-02-27T02:44:24.824Z,0.20
2019-02-27T02:47:19.747Z,0.10
2019-02-27T02:50:34.844Z,-0.30
2019-02-27T02:53:50.932Z,-0.30
2019-02-27T02:56:37.349Z,-0.20
2019-02-27T02:59:41.223Z,0.00
2019-02-27T03:02:23.757Z,0.00
2019-02-27T03:05:14.496Z,0.00
2019-02-27T03:08:03.786Z,-0.10
2019-02-27T03:11:18.131Z,-0.40
2019-02-27T03:14:17.736Z,-0.50
2019-02-27T03:17:32.352Z,-0.30
2019-02-27T03:20:28.465Z,-0.10
2019-02-27T03:23:26.217Z,-0.20
2019-02-27T03:26:16.531Z,-0.30
2019-02-27T03:29:06.007Z,-0.40
2019-02-27T03:32:01.329Z,-0.20
2019-02-27T03:35:00.667Z,-0.20
2019-02-27T03:37:57.413Z,-0.20
2019-02-27T03:41:06.139Z,0.00
2019-02-27T03:44:04.917Z,0.00
2019-02-27T03:46:54.096Z,0.00
2019-02-27T03:49:57.022Z,-0.10
2019-02-27T03:52:58.856Z,-0.10
2019-02-27T03:56:12.298Z,-0.10
2019-02-27T03:58:57.608Z,-0.10
2019-02-27T04:01:40.699Z,0.00
2019-02-27T04:05:05.452Z,-0.10
2019-02-27T04:07:56.173Z,-0.10
2019-02-27T04:10:31.458Z,-0.10
2019-02-27T04:13:04.048Z,-0.10
2019-02-27T04:15:35.017Z,-0.10
2019-02-27T04:18:04.297Z,0.00
2019-02-27T04:20:34.917Z,0.00
2019-02-27T04:23:11.187Z,0.00
2019-02-27T04:25:42.452Z,-0.10
2019-02-27T04:28:13.254Z,-0.10
2019-02-27T04:30:51.054Z,0.00
2019-02-27T04:33:23.440Z,-0.10
2019-02-27T04:35:55.275Z,-0.10
2019-02-27T04:38:27.514Z,-0.20
2019-02-27T04:40:58.123Z,-0.20
2019-02-27T04:43:32.191Z,-0.10
2019-02-27T04:46:06.414Z,-0.10
2019-02-27T04:48:37.255Z,-0.10
2019-02-27T04:51:08.572Z,0.00
2019-02-27T04:53:40.759Z,0.00
2019-02-27T04:56:14.410Z,0.00
2019-02-27T04:58:45.374Z,0.10
2019-02-27T05:01:16.371Z,0.10
2019-02-27T05:03:46.969Z,0.10
2019-02-27T05:06:17.776Z,0.10
2019-02-27T05:08:48.709Z,0.20
2019-02-27T05:11:20.561Z,0.10
2019-02-27T05:13:54.326Z,0.10
2019-02-27T05:16:25.077Z,0.10
2019-02-27T05:18:55.603Z,0.00
2019-02-27T05:21:28.357Z,0.00
2019-02-27T05:24:00.646Z,-0.10
2019-02-27T05:26:31.269Z,-0.10
2019-02-27T05:29:01.825Z,-0.10
2019-02-27T05:31:32.678Z,-0.20
2019-02-27T05:34:03.294Z,-0.20
2019-02-27T05:36:34.203Z,-0.10
2019-02-27T05:39:08.357Z,-0.10
2019-02-27T05:41:39.175Z,-0.10
2019-02-27T05:44:11.626Z,-0.10
2019-02-27T05:46:43.173Z,-0.10
2019-02-27T05:49:15.320Z,-0.10
2019-02-27T05:51:49.003Z,-0.10
2019-02-27T05:54:19.546Z,-0.10
2019-02-27T05:56:51.811Z,-0.10
2019-02-27T05:59:22.424Z,-0.20
2019-02-27T06:01:59.949Z,-0.10
2019-02-27T06:04:30.441Z,-0.10
2019-02-27T06:07:03.629Z,-0.10
2019-02-27T06:09:34.092Z,-0.10
2019-02-27T06:12:06.956Z,-0.10
2019-02-27T06:14:37.019Z,-0.10
2019-02-27T06:17:10.112Z,-0.10
2019-02-27T06:19:42.820Z,-0.10
2019-02-27T06:22:16.077Z,-0.10
2019-02-27T06:24:49.374Z,0.00
2019-02-27T06:27:19.874Z,0.00
2019-02-27T06:29:50.440Z,0.00
2019-02-27T06:32:21.006Z,0.00
2019-02-27T06:34:51.907Z,0.00
2019-02-27T06:37:22.522Z,0.00
2019-02-27T06:39:54.192Z,0.00
2019-02-27T06:42:24.938Z,0.00
2019-02-27T06:44:55.520Z,0.00
2019-02-27T06:47:29.552Z,0.10
2019-02-27T06:50:10.543Z,0.30
2019-02-27T06:52:45.769Z,0.30
2019-02-27T06:55:16.308Z,0.40
2019-02-27T06:57:50.735Z,0.50
2019-02-27T07:00:24.261Z,0.50
2019-02-27T07:02:57.675Z,0.40
2019-02-27T07:05:32.451Z,0.50
2019-02-27T07:08:05.099Z,0.60
2019-02-27T07:10:38.909Z,0.70
2019-02-27T07:13:12.284Z,0.90
2019-02-27T07:15:50.858Z,1.10
2019-02-27T07:18:21.372Z,1.30
2019-02-27T07:20:55.649Z,1.30
2019-02-27T07:23:25.572Z,1.40
2019-02-27T07:25:59.189Z,1.50
2019-02-27T07:28:34.188Z,1.50
2019-02-27T07:31:08.648Z,1.80
2019-02-27T07:33:42.083Z,2.20
2019-02-27T07:36:20.716Z,2.90
2019-02-27T07:38:57.658Z,3.70
2019-02-27T07:41:37.704Z,4.50
2019-02-27T07:44:10.425Z,4.50
2019-02-27T07:46:43.774Z,4.40
2019-02-27T07:49:14.321Z,4.90
2019-02-27T07:51:46.067Z,5.30
2019-02-27T07:54:16.584Z,5.80
2019-02-27T07:56:47.108Z,5.90
2019-02-27T07:59:18.558Z,5.60
2019-02-27T08:01:54.089Z,5.30
2019-02-27T08:04:24.582Z,5.60
2019-02-27T08:06:55.203Z,6.50
2019-02-27T08:09:29.939Z,7.10
2019-02-27T08:11:59.717Z,8.20
2019-02-27T08:14:30.408Z,9.20
2019-02-27T08:17:03.244Z,10.70
2019-02-27T08:19:33.976Z,11.20
2019-02-27T08:22:04.723Z,11.80
2019-02-27T08:24:38.010Z,11.10
2019-02-27T08:27:09.683Z,11.30
2019-02-27T08:29:43.627Z,11.50
2019-02-27T08:32:14.725Z,11.80
2019-02-27T08:34:45.316Z,12.30
2019-02-27T08:37:20.290Z,12.60
2019-02-27T08:39:51.324Z,12.70
2019-02-27T08:42:24.046Z,13.70
2019-02-27T08:44:54.797Z,13.60
2019-02-27T08:47:29.355Z,12.90
2019-02-27T08:50:02.940Z,12.60
2019-02-27T08:52:33.819Z,11.60
2019-02-27T08:55:05.616Z,9.50
2019-02-27T08:57:36.867Z,10.20
2019-02-27T09:00:14.928Z,9.60
2019-02-27T09:02:46.076Z,9.80
2019-02-27T09:05:20.032Z,10.90
2019-02-27T09:07:52.156Z,11.40
2019-02-27T09:10:23.289Z,12.50
2019-02-27T09:13:04.944Z,13.80
2019-02-27T09:15:32.453Z,13.70
2019-02-27T09:18:06.275Z,14.50
2019-02-27T09:20:40.000Z,14.70
2019-02-27T09:23:14.338Z,15.50
2019-02-27T09:25:46.445Z,16.10
2019-02-27T09:28:17.294Z,17.60
2019-02-27T09:30:49.775Z,17.20
2019-02-27T09:33:21.023Z,17.00
2019-02-27T09:35:51.825Z,18.10
2019-02-27T09:38:25.816Z,19.50
2019-02-27T09:40:56.508Z,18.80
2019-02-27T09:43:32.226Z,17.70
2019-02-27T09:46:07.455Z,17.80
2019-02-27T09:48:42.256Z,17.50
2019-02-27T09:51:15.886Z,18.90
2019-02-27T09:53:49.913Z,20.30
2019-02-27T09:56:20.781Z,20.90
2019-02-27T09:58:54.273Z,21.90
2019-02-27T10:01:24.965Z,22.90
2019-02-27T10:03:57.646Z,23.40
2019-02-27T10:06:35.648Z,23.80
2019-02-27T10:09:09.010Z,24.50
2019-02-27T10:11:43.480Z,25.70
2019-02-27T10:14:17.084Z,26.70
2019-02-27T10:16:51.216Z,26.80
2019-02-27T10:19:26.997Z,26.50
2019-02-27T10:22:05.332Z,27.30
2019-02-27T10:24:37.668Z,27.30
2019-02-27T10:27:11.741Z,27.40
2019-02-27T10:29:53.692Z,27.40
2019-02-27T10:32:51.033Z,27.10
2019-02-27T10:35:46.247Z,27.20
2019-02-27T10:38:19.219Z,28.30
2019-02-27T10:41:27.591Z,28.30
2019-02-27T10:44:13.061Z,28.90
2019-02-27T10:47:23.431Z,28.80
2019-02-27T10:50:18.493Z,28.30
2019-02-27T10:53:00.012Z,28.30
2019-02-27T10:55:34.639Z,27.20
2019-02-27T10:58:16.099Z,28.40
2019-02-27T11:00:49.567Z,29.90
2019-02-27T11:04:24.975Z,30.40
2019-02-27T11:07:42.827Z,30.50
2019-02-27T11:10:42.288Z,28.80
2019-02-27T11:13:24.372Z,28.10
2019-02-27T11:17:02.152Z,27.90
2019-02-27T11:19:32.383Z,27.90
2019-02-27T11:22:18.282Z,29.70
2019-02-27T11:24:52.471Z,30.20
2019-02-27T11:27:38.952Z,31.00
2019-02-27T11:30:17.537Z,30.80
2019-02-27T11:32:57.787Z,29.10
2019-02-27T11:35:36.746Z,29.20
2019-02-27T11:38:09.312Z,29.60
2019-02-27T11:40:42.590Z,30.50
2019-02-27T11:43:14.649Z,29.30
2019-02-27T11:45:47.382Z,29.40
2019-02-27T11:48:42.381Z,29.10
2019-02-27T11:51:17.493Z,29.80
2019-02-27T11:53:54.683Z,31.10
2019-02-27T11:56:25.855Z,30.50
2019-02-27T11:59:00.037Z,31.50
2019-02-27T12:01:32.205Z,31.50
2019-02-27T12:04:05.312Z,31.30
2019-02-27T12:06:41.363Z,32.20
2019-02-27T12:09:12.262Z,30.60
2019-02-27T12:11:48.450Z,30.40
2019-02-27T12:14:24.846Z,30.30
2019-02-27T12:17:09.602Z,29.90
2019-02-27T12:19:49.026Z,29.80
2019-02-27T12:22:23.354Z,29.90
2019-02-27T12:24:54.701Z,29.40
2019-02-27T12:27:47.942Z,29.50
2019-02-27T12:30:02.842Z,30.20
2019-02-27T12:32:34.875Z,29.80
2019-02-27T12:35:12.636Z,29.20
2019-02-27T12:37:43.493Z,29.00
2019-02-27T12:40:25.252Z,28.60
2019-02-27T12:42:59.691Z,28.30
2019-02-27T12:45:33.840Z,27.80
2019-02-27T12:48:06.365Z,27.20
2019-02-27T12:50:37.418Z,26.30
2019-02-27T12:53:12.573Z,25.00
2019-02-27T12:55:43.392Z,25.50
2019-02-27T12:58:14.200Z,26.30
2019-02-27T13:00:46.756Z,26.60
2019-02-27T13:03:18.187Z,25.90
2019-02-27T13:05:55.519Z,25.60
2019-02-27T13:08:33.881Z,26.30
2019-02-27T13:11:05.291Z,26.90
2019-02-27T13:13:37.581Z,27.10
2019-02-27T13:16:14.283Z,27.40
2019-02-27T13:18:43.196Z,27.50
2019-02-27T13:21:20.698Z,26.60
2019-02-27T13:23:52.473Z,26.20
2019-02-27T13:26:25.142Z,26.70
2019-02-27T13:28:56.540Z,26.40
2019-02-27T13:31:35.319Z,26.00
2019-02-27T13:34:08.057Z,25.50
2019-02-27T13:36:39.855Z,25.30
2019-02-27T13:39:11.136Z,23.40
2019-02-27T13:41:45.691Z,24.70
2019-02-27T13:44:18.635Z,25.10
2019-02-27T13:46:58.216Z,24.50
2019-02-27T13:49:30.440Z,24.30
2019-02-27T13:52:01.063Z,24.40
2019-02-27T13:54:35.101Z,24.20
2019-02-27T13:57:06.983Z,24.00
2019-02-27T13:59:42.201Z,23.50
2019-02-27T14:02:16.129Z,23.20
2019-02-27T14:04:47.207Z,22.70
2019-02-27T14:07:18.241Z,22.20
2019-02-27T14:09:50.518Z,21.70
2019-02-27T14:12:24.472Z,21.20
2019-02-27T14:14:56.520Z,19.30
2019-02-27T14:17:31.401Z,18.00
2019-02-27T14:20:05.358Z,17.60
2019-02-27T14:22:40.657Z,17.70
2019-02-27T14:25:12.853Z,16.90
2019-02-27T14:27:47.547Z,16.60
2019-02-27T14:30:24.333Z,16.30
2019-02-27T14:33:00.613Z,16.30
2019-02-27T14:35:36.379Z,16.60
2019-02-27T14:38:05.815Z,16.70
2019-02-27T14:40:41.194Z,16.60
2019-02-27T14:43:12.393Z,16.50
2019-02-27T14:45:46.490Z,16.40
2019-02-27T14:48:21.622Z,16.40
2019-02-27T14:50:52.559Z,16.50
2019-02-27T14:53:25.881Z,16.30
2019-02-27T14:55:56.813Z,15.90
2019-02-27T14:58:27.832Z,15.90
2019-02-27T15:00:58.946Z,15.90
2019-02-27T15:03:30.198Z,15.80
2019-02-27T15:06:07.052Z,15.70
2019-02-27T15:08:44.326Z,15.70
2019-02-27T15:11:15.219Z,15.60
2019-02-27T15:13:47.780Z,15.30
2019-02-27T15:16:23.754Z,15.20
2019-02-27T15:19:02.491Z,15.20
2019-02-27T15:21:38.859Z,15.00
2019-02-27T15:24:10.507Z,15.00
2019-02-27T15:26:45.411Z,14.90
2019-02-27T15:29:16.437Z,14.90
2019-02-27T15:31:47.173Z,14.70
2019-02-27T15:34:18.025Z,14.70
2019-02-27T15:36:48.868Z,14.70
2019-02-27T15:39:21.134Z,14.70
2019-02-27T15:41:53.504Z,14.50
2019-02-27T15:44:38.675Z,14.30
2019-02-27T15:47:23.771Z,14.10
2019-02-27T15:50:00.157Z,14.00
2019-02-27T15:52:34.235Z,13.90
2019-02-27T15:55:19.582Z,13.80
2019-02-27T15:57:53.781Z,13.70
2019-02-27T16:00:27.733Z,13.60
2019-02-27T16:03:00.250Z,13.40
2019-02-27T16:05:33.027Z,13.40
2019-02-27T16:08:03.945Z,13.40
2019-02-27T16:10:35.221Z,13.20
2019-02-27T16:13:08.614Z,13.10
2019-02-27T16:15:39.469Z,13.00
2019-02-27T16:18:14.331Z,12.90
2019-02-27T16:20:59.428Z,13.00
2019-02-27T16:23:31.948Z,12.70
2019-02-27T16:26:12.510Z,12.60
2019-02-27T16:28:46.120Z,12.50
2019-02-27T16:31:16.292Z,12.30
2019-02-27T16:33:47.180Z,12.20
2019-02-27T16:36:18.136Z,12.10
2019-02-27T16:42:31.909Z,11.70
2019-02-27T16:45:02.729Z,11.40
2019-02-27T16:47:34.042Z,11.40
2019-02-27T16:50:05.099Z,11.40
2019-02-27T16:52:36.056Z,11.20
2019-02-27T16:55:08.727Z,11.20
2019-02-27T16:57:40.182Z,11.00
2019-02-27T17:00:12.636Z,10.90
2019-02-27T17:02:43.451Z,10.60
2019-02-27T17:05:14.521Z,10.40
2019-02-27T17:07:45.489Z,10.30
2019-02-27T17:10:18.876Z,10.20
2019-02-27T17:12:49.742Z,10.20
2019-02-27T17:19:03.766Z,9.60
2019-02-27T17:21:35.887Z,9.40
2019-02-27T17:24:06.561Z,9.10
2019-02-27T17:26:39.165Z,9.00
2019-02-27T17:29:10.117Z,8.90
2019-02-27T17:35:30.440Z,8.80
2019-02-27T17:38:01.195Z,8.70
2019-02-27T17:44:14.212Z,8.80
2019-02-27T17:46:44.832Z,8.60
2019-02-27T17:49:15.288Z,8.50
2019-02-27T17:51:45.724Z,8.60
2019-02-27T17:54:16.191Z,8.60
2019-02-27T18:00:42.675Z,8.50
2019-02-27T18:03:13.142Z,8.40
2019-02-27T18:05:43.581Z,8.20
2019-02-27T18:08:16.303Z,8.10
2019-02-27T18:10:47.372Z,8.00
2019-02-27T18:13:17.836Z,7.80
2019-02-27T18:15:48.321Z,7.60
2019-02-27T18:18:19.087Z,7.50
2019-02-27T18:20:49.589Z,7.60
2019-02-27T18:23:21.975Z,7.50
2019-02-27T18:25:52.227Z,7.50
2019-02-27T18:28:22.675Z,7.50
2019-02-27T18:30:53.852Z,7.50
2019-02-27T18:33:24.626Z,7.40
2019-02-27T18:35:56.691Z,7.40
2019-02-27T18:38:30.336Z,7.30
2019-02-27T18:41:08.299Z,7.20
2019-02-27T18:43:46.641Z,7.00
2019-02-27T18:46:24.697Z,7.00
2019-02-27T18:48:58.787Z,6.80
2019-02-27T18:51:38.647Z,6.70
2019-02-27T18:54:11.314Z,6.70
2019-02-27T18:56:41.540Z,6.70
2019-02-27T18:59:18.803Z,6.70
2019-02-27T19:05:31.434Z,6.70
2019-02-27T19:08:03.913Z,6.70
2019-02-27T19:10:41.755Z,6.80
2019-02-27T19:13:10.026Z,6.80
2019-02-27T19:15:46.530Z,6.90
2019-02-27T19:18:21.417Z,6.80
2019-02-27T19:20:59.298Z,6.80
2019-02-27T19:23:31.944Z,6.70
2019-02-27T19:26:09.373Z,6.60
2019-02-27T19:28:41.859Z,6.60
2019-02-27T19:31:16.755Z,6.50
2019-02-27T19:33:51.237Z,6.50
2019-02-27T19:36:24.815Z,6.50
2019-02-27T19:38:55.375Z,6.50
2019-02-27T19:41:38.578Z,6.50
2019-02-27T19:44:13.255Z,6.60
2019-02-27T19:46:47.505Z,6.80
2019-02-27T19:49:18.363Z,6.70
2019-02-27T19:51:54.895Z,6.70
2019-02-27T19:54:29.368Z,6.80
2019-02-27T19:57:01.541Z,6.90
2019-02-27T19:59:35.710Z,7.10
2019-02-27T20:02:09.079Z,7.20
2019-02-27T20:04:43.680Z,7.30
2019-02-27T20:07:22.223Z,7.30
2019-02-27T20:09:55.750Z,7.70
2019-02-27T20:12:37.335Z,7.80
2019-02-27T20:15:12.337Z,7.70
2019-02-27T20:17:43.063Z,7.70
2019-02-27T20:20:14.308Z,7.60
2019-02-27T20:22:45.383Z,7.50
2019-02-27T20:25:17.879Z,7.40
2019-02-27T20:27:48.319Z,7.30
2019-02-27T20:30:19.508Z,7.30
2019-02-27T20:32:50.107Z,7.30
2019-02-27T20:35:21.555Z,7.30
2019-02-27T20:37:52.432Z,7.30
2019-02-27T20:40:23.128Z,7.20
2019-02-27T20:42:55.083Z,7.30
2019-02-27T20:45:26.809Z,7.30
2019-02-27T20:48:01.457Z,7.30
2019-02-27T20:50:35.286Z,7.20
2019-02-27T20:53:05.807Z,7.30
2019-02-27T20:55:36.462Z,7.70
2019-02-27T20:58:07.038Z,7.60
2019-02-27T21:00:37.860Z,7.70
2019-02-27T21:03:08.435Z,7.80
2019-02-27T21:05:40.987Z,7.70
2019-02-27T21:08:11.443Z,7.70
2019-02-27T21:10:41.955Z,7.70
2019-02-27T21:13:15.992Z,7.80
2019-02-27T21:15:44.597Z,8.10
2019-02-27T21:18:15.267Z,8.40
2019-02-27T21:20:46.268Z,8.40
2019-02-27T21:23:17.277Z,8.20
2019-02-27T21:25:49.336Z,8.20
2019-02-27T21:28:21.274Z,8.10
2019-02-27T21:30:53.145Z,8.00
2019-02-27T21:33:23.907Z,8.10
2019-02-27T21:35:54.414Z,8.00
2019-02-27T21:42:19.609Z,8.50
2019-02-27T21:44:50.279Z,8.60
2019-02-27T21:47:20.731Z,8.60
2019-02-27T21:49:51.180Z,8.80
2019-02-27T21:52:22.509Z,8.60
2019-02-27T21:54:53.114Z,8.50
2019-02-27T21:57:26.448Z,8.40
2019-02-27T21:59:56.887Z,8.40
2019-02-27T22:02:30.119Z,8.40
2019-02-27T22:04:59.725Z,8.10
2019-02-27T22:07:33.260Z,8.10
2019-02-27T22:10:02.422Z,8.00
2019-02-27T22:12:35.249Z,7.80
2019-02-27T22:15:07.768Z,7.60
2019-02-27T22:17:39.872Z,7.60
2019-02-27T22:20:13.284Z,7.50
2019-02-27T22:22:43.808Z,7.30
2019-02-27T22:25:15.957Z,7.20
2019-02-27T22:27:46.718Z,7.20
2019-02-27T22:30:17.599Z,7.00
2019-02-27T22:32:50.332Z,6.90
2019-02-27T22:35:20.875Z,6.70
2019-02-27T22:37:52.673Z,6.50
2019-02-27T22:40:23.687Z,6.40
2019-02-27T22:42:56.228Z,6.20
2019-02-27T22:45:26.784Z,6.10
2019-02-27T22:47:57.641Z,5.90
2019-02-27T22:50:28.303Z,5.80
2019-02-27T22:53:01.941Z,5.60
2019-02-27T22:55:36.304Z,5.60
2019-02-27T22:58:09.077Z,5.50
2019-02-27T23:01:14.875Z,5.40
2019-02-27T23:04:05.880Z,5.30
2019-02-27T23:06:36.480Z,5.30
2019-02-27T23:09:11.404Z,5.20
2019-02-27T23:11:43.732Z,5.00
2019-02-27T23:14:14.215Z,5.00
2019-02-27T23:16:46.840Z,5.00
2019-02-27T23:19:18.774Z,5.10
2019-02-27T23:21:49.315Z,5.10
2019-02-27T23:24:25.039Z,5.20
2019-02-27T23:26:55.586Z,5.20
2019-02-27T23:29:26.197Z,5.30
2019-02-27T23:31:56.632Z,5.30
2019-02-27T23:34:27.363Z,5.20
2019-02-27T23:37:00.559Z,5.30
2019-02-27T23:39:31.044Z,5.10
2019-02-27T23:42:07.178Z,5.00
2019-02-27T23:44:40.924Z,5.00
2019-02-27T23:47:11.404Z,4.90
2019-02-27T23:49:46.167Z,4.80
2019-02-27T23:52:19.335Z,4.60
2019-02-27T23:54:53.119Z,4.60
2019-02-27T23:57:24.508Z,4.50
2019-02-27T23:59:58.215Z,4.60
